This is the latest recevied weather packets stored in our database for station/object KI4KWR-1. If no packets are shown the sender has not sent any weather packets the latest 10 day(s).
| Time | Temp. | Humidity | Pressure | Rain* | Wind** | Luminosity | Snow |
|---|---|---|---|---|---|---|---|
| 1788298204 | 34.44° C | 43% | 988.6 hPa | 0 mm | - | - | - |
| 1788297304 | 33.89° C | 44% | 988.6 hPa | 0 mm | - | - | - |
| 1788296404 | 35° C | 40% | 988.9 hPa | 0 mm | - | - | - |
| 1788295504 | 35.56° C | 40% | 989.1 hPa | 0 mm | - | - | - |
| 1788294630 | 35° C | 40% | 989.2 hPa | 0 mm | - | - | - |
| 1788293704 | 36.11° C | 39% | 989.2 hPa | 0 mm | - | - | - |
| 1788292804 | 34.44° C | 41% | 989.4 hPa | 0 mm | - | - | - |
| 1788291904 | 34.44° C | 46% | 989.5 hPa | 0 mm | - | - | - |
| 1788291004 | 35° C | 44% | 989.6 hPa | 0 mm | - | - | - |
| 1788290104 | 34.44° C | 45% | 989.7 hPa | 0 mm | - | - | - |
| 1788289203 | 34.44° C | 48% | 990 hPa | 0 mm | - | - | - |
| 1788288304 | 35° C | 46% | 990.1 hPa | 0 mm | - | - | - |
| 1788287404 | 36.11° C | 41% | 990.2 hPa | 0 mm | - | - | - |
| 1788286504 | 35° C | 44% | 990.4 hPa | 0 mm | - | - | - |
| 1788285605 | 32.22° C | 53% | 990.7 hPa | 0 mm | - | - | - |
| 1788284704 | 32.78° C | 51% | 990.7 hPa | 0 mm | - | - | - |
| 1788283804 | 33.89° C | 48% | 990.9 hPa | 0 mm | - | - | - |
| 1788282903 | 36.11° C | 42% | 990.9 hPa | 0 mm | - | - | - |
| 1788282003 | 36.11° C | 43% | 991.1 hPa | 0 mm | - | - | - |
| 1788281104 | 33.89° C | 49% | 991.3 hPa | 0 mm | - | - | - |
| 1788280204 | 34.44° C | 46% | 991.4 hPa | 0 mm | - | - | - |
| 1788279304 | 34.44° C | 49% | 991.4 hPa | 0 mm | - | - | - |
| 1788278404 | 33.33° C | 51% | 991.6 hPa | 0 mm | - | - | - |
| 1788277504 | 32.78° C | 54% | 991.7 hPa | 0 mm | - | - | - |
| 1788276603 | 32.78° C | 54% | 991.6 hPa | 0 mm | - | - | - |
* Rain latest hour (hover to see other rain measurements)
** Current wind speed in m/s (hover to see current wind gust speed)